createdAt,value
2017-12-05T00:01:44.346Z,96.74
2017-12-05T00:04:11.940Z,96.57
2017-12-05T00:06:39.559Z,96.37
2017-12-05T00:09:07.141Z,96.31
2017-12-05T00:11:34.771Z,95.99
2017-12-05T00:14:02.363Z,95.78
2017-12-05T00:16:29.960Z,95.82
2017-12-05T00:18:57.562Z,95.96
2017-12-05T00:21:25.181Z,95.71
2017-12-05T00:23:52.790Z,95.78
2017-12-05T00:26:20.502Z,95.60
2017-12-05T00:28:48.094Z,95.83
2017-12-05T00:31:15.738Z,95.89
2017-12-05T00:33:43.342Z,95.81
2017-12-05T00:36:10.954Z,95.64
2017-12-05T00:38:38.611Z,95.64
2017-12-05T00:41:06.218Z,95.58
2017-12-05T00:43:33.811Z,95.47
2017-12-05T00:46:01.434Z,95.45
2017-12-05T00:48:29.028Z,95.54
2017-12-05T00:50:56.662Z,95.65
2017-12-05T00:53:24.275Z,95.95
2017-12-05T00:55:51.895Z,96.06
2017-12-05T00:58:19.509Z,96.08
2017-12-05T01:00:47.146Z,96.07
2017-12-05T01:03:14.766Z,96.09
2017-12-05T01:05:42.362Z,95.90
2017-12-05T01:08:10.023Z,95.62
2017-12-05T01:10:37.613Z,95.54
2017-12-05T01:13:05.218Z,95.62
2017-12-05T01:15:32.798Z,95.69
2017-12-05T01:18:00.424Z,95.52
2017-12-05T01:20:28.042Z,95.28
2017-12-05T01:22:55.672Z,95.33
2017-12-05T01:25:23.286Z,94.98
2017-12-05T01:27:50.990Z,94.68
2017-12-05T01:30:18.603Z,94.82
2017-12-05T01:32:46.250Z,94.74
2017-12-05T01:35:13.845Z,94.39
2017-12-05T01:37:41.482Z,94.11
2017-12-05T01:40:09.126Z,94.08
2017-12-05T01:42:36.738Z,93.93
2017-12-05T01:45:04.346Z,93.63
2017-12-05T01:47:31.943Z,93.57
2017-12-05T01:49:59.581Z,93.54
2017-12-05T01:52:27.179Z,93.13
2017-12-05T01:54:54.790Z,93.24
2017-12-05T01:57:22.382Z,92.95
2017-12-05T01:59:50.006Z,92.37
2017-12-05T02:02:17.678Z,91.78
2017-12-05T02:04:45.283Z,91.74
2017-12-05T02:07:12.881Z,91.53
2017-12-05T02:09:40.534Z,91.57
2017-12-05T02:12:08.121Z,91.46
2017-12-05T02:14:35.726Z,91.67
2017-12-05T02:17:03.319Z,91.88
2017-12-05T02:19:30.994Z,92.07
2017-12-05T02:21:58.619Z,91.64
2017-12-05T02:24:26.295Z,91.78
2017-12-05T02:26:53.926Z,91.49
2017-12-05T02:29:21.610Z,91.06
2017-12-05T02:31:49.189Z,91.01
2017-12-05T02:34:16.808Z,91.04
2017-12-05T02:36:44.487Z,90.96
2017-12-05T02:39:12.117Z,90.46
2017-12-05T02:41:39.694Z,90.40
2017-12-05T02:44:07.323Z,90.49
2017-12-05T02:46:34.931Z,90.57
2017-12-05T02:49:02.537Z,90.20
2017-12-05T02:51:30.187Z,90.06
2017-12-05T02:53:57.835Z,90.28
2017-12-05T02:56:25.423Z,90.13
2017-12-05T02:58:53.032Z,90.26
2017-12-05T03:01:20.625Z,89.98
2017-12-05T03:03:48.242Z,89.84
2017-12-05T03:06:15.814Z,89.82
2017-12-05T03:08:43.435Z,89.88
2017-12-05T03:11:11.044Z,89.69
2017-12-05T03:13:38.647Z,90.04
2017-12-05T03:16:06.266Z,89.68
2017-12-05T03:18:33.846Z,89.68
2017-12-05T03:21:01.469Z,89.96
2017-12-05T03:23:29.134Z,89.73
2017-12-05T03:25:56.817Z,89.45
2017-12-05T03:28:24.438Z,89.59
2017-12-05T03:30:52.111Z,89.16
2017-12-05T03:33:19.742Z,89.40
2017-12-05T03:35:47.366Z,89.58
2017-12-05T03:38:14.962Z,89.66
2017-12-05T03:40:42.573Z,89.34
2017-12-05T03:43:10.226Z,89.17
2017-12-05T03:45:37.842Z,89.34
2017-12-05T03:48:05.457Z,89.25
2017-12-05T03:50:33.094Z,89.25
2017-12-05T03:53:00.704Z,89.54
2017-12-05T03:55:28.365Z,89.45
2017-12-05T03:57:55.959Z,89.27
2017-12-05T04:00:23.594Z,89.43
2017-12-05T04:02:51.189Z,89.36
2017-12-05T04:05:18.845Z,89.33
2017-12-05T04:07:46.446Z,89.18
2017-12-05T04:10:14.059Z,89.38
2017-12-05T04:12:41.661Z,89.57
2017-12-05T04:15:09.290Z,89.68
2017-12-05T04:17:36.879Z,89.61
2017-12-05T04:20:04.560Z,89.25
2017-12-05T04:22:32.132Z,89.26
2017-12-05T04:24:59.736Z,89.35
2017-12-05T04:27:27.364Z,89.19
2017-12-05T04:29:55.008Z,89.41
2017-12-05T04:32:22.685Z,89.17
2017-12-05T04:34:50.271Z,89.43
2017-12-05T04:37:17.893Z,89.53
2017-12-05T04:39:45.490Z,89.17
2017-12-05T04:42:13.114Z,89.26
2017-12-05T04:44:40.707Z,89.50
2017-12-05T04:47:08.301Z,89.56
2017-12-05T04:49:35.899Z,89.65
2017-12-05T04:52:03.530Z,89.64
2017-12-05T04:54:31.131Z,89.67
2017-12-05T04:56:58.755Z,89.90
2017-12-05T04:59:26.352Z,89.86
2017-12-05T05:01:54.011Z,89.99
2017-12-05T05:04:21.623Z,89.97
2017-12-05T05:06:49.275Z,90.21
2017-12-05T05:09:16.870Z,90.63
2017-12-05T05:11:44.482Z,90.75
2017-12-05T05:14:12.102Z,90.75
2017-12-05T05:16:39.730Z,90.67
2017-12-05T05:19:07.331Z,90.95
2017-12-05T05:21:34.971Z,91.08
2017-12-05T05:24:02.559Z,91.17
2017-12-05T05:26:30.291Z,91.08
2017-12-05T05:28:57.942Z,91.10
2017-12-05T05:31:25.538Z,90.85
2017-12-05T05:33:53.223Z,90.89
2017-12-05T05:36:20.816Z,90.75
2017-12-05T05:38:48.451Z,90.46
2017-12-05T05:41:16.043Z,90.44
2017-12-05T05:43:43.674Z,90.42
2017-12-05T05:46:11.272Z,90.59
2017-12-05T05:48:38.905Z,90.68
2017-12-05T05:51:06.497Z,90.67
2017-12-05T05:53:34.125Z,90.85
2017-12-05T05:56:01.715Z,90.87
2017-12-05T05:58:29.346Z,90.99
2017-12-05T06:00:56.930Z,91.30
2017-12-05T06:03:24.582Z,91.54
2017-12-05T06:05:52.227Z,91.89
2017-12-05T06:08:19.926Z,92.23
2017-12-05T06:10:47.530Z,92.35
2017-12-05T06:13:15.174Z,92.43
2017-12-05T06:15:42.758Z,92.42
2017-12-05T06:18:10.395Z,92.61
2017-12-05T06:20:38.034Z,92.65
2017-12-05T06:23:05.635Z,92.77
2017-12-05T06:25:33.286Z,92.59
2017-12-05T06:28:00.899Z,92.54
2017-12-05T06:30:28.643Z,92.70
2017-12-05T06:32:56.239Z,92.59
2017-12-05T06:35:23.868Z,92.69
2017-12-05T06:37:51.456Z,92.78
2017-12-05T06:40:19.094Z,92.74
2017-12-05T06:42:46.696Z,93.15
2017-12-05T06:45:14.298Z,93.22
2017-12-05T06:47:41.897Z,93.91
2017-12-05T06:50:09.506Z,94.28
2017-12-05T06:52:37.125Z,94.68
2017-12-05T06:55:04.750Z,95.00
2017-12-05T06:57:32.340Z,95.33
2017-12-05T06:59:59.958Z,95.49
2017-12-05T07:02:27.572Z,95.50
2017-12-05T07:04:55.247Z,95.20
2017-12-05T07:07:22.860Z,95.12
2017-12-05T07:09:50.481Z,94.94
2017-12-05T07:12:18.100Z,94.95
2017-12-05T07:14:45.726Z,94.97
2017-12-05T07:17:13.362Z,94.90
2017-12-05T07:19:40.938Z,94.91
2017-12-05T07:22:08.528Z,95.05
2017-12-05T07:24:36.261Z,94.88
2017-12-05T07:27:03.855Z,94.99
2017-12-05T07:29:31.502Z,94.73
2017-12-05T07:31:59.169Z,94.64
2017-12-05T07:34:26.784Z,94.82
2017-12-05T07:36:54.335Z,94.96
2017-12-05T07:39:21.961Z,95.02
2017-12-05T07:41:49.535Z,95.03
2017-12-05T07:44:17.309Z,95.24
2017-12-05T07:46:44.938Z,95.12
2017-12-05T07:49:12.638Z,95.20
2017-12-05T07:51:40.219Z,95.12
2017-12-05T07:54:07.841Z,95.14
2017-12-05T07:56:35.469Z,95.16
2017-12-05T07:59:03.082Z,95.31
2017-12-05T08:01:30.741Z,95.44
2017-12-05T08:03:58.338Z,95.60
2017-12-05T08:06:25.982Z,95.66
2017-12-05T08:08:53.703Z,95.73
2017-12-05T08:11:21.322Z,95.76
2017-12-05T08:13:48.920Z,95.85
2017-12-05T08:16:16.538Z,95.91
2017-12-05T08:18:44.127Z,96.02
2017-12-05T08:21:11.748Z,95.99
2017-12-05T08:23:39.350Z,96.08
2017-12-05T08:26:06.970Z,96.12
2017-12-05T08:28:34.579Z,96.19
2017-12-05T08:31:02.214Z,96.41
2017-12-05T08:33:29.786Z,96.53
2017-12-05T08:35:57.427Z,96.67
2017-12-05T08:38:27.505Z,96.84
2017-12-05T08:40:55.141Z,97.04
2017-12-05T08:43:22.750Z,97.27
2017-12-05T08:45:50.355Z,97.53
2017-12-05T08:48:18.062Z,97.85
2017-12-05T08:50:45.681Z,98.03
2017-12-05T08:53:13.299Z,98.09
2017-12-05T08:55:40.890Z,97.88
2017-12-05T08:58:08.506Z,97.89
2017-12-05T09:00:36.099Z,97.77
2017-12-05T09:03:03.737Z,97.78
2017-12-05T09:05:31.323Z,97.66
2017-12-05T09:07:58.999Z,97.55
2017-12-05T09:10:26.581Z,97.26
2017-12-05T09:12:54.262Z,96.88
2017-12-05T09:15:21.830Z,96.91
2017-12-05T09:17:51.155Z,96.85
2017-12-05T09:20:17.066Z,96.77
2017-12-05T09:22:44.705Z,96.75
2017-12-05T09:25:12.273Z,96.57
2017-12-05T09:27:39.873Z,96.51
2017-12-05T09:30:07.531Z,96.55
2017-12-05T09:32:35.111Z,96.46
2017-12-05T09:35:02.815Z,96.02
2017-12-05T09:37:30.402Z,96.02
2017-12-05T09:39:58.022Z,95.87
2017-12-05T09:42:25.612Z,95.86
2017-12-05T09:44:53.218Z,95.92
2017-12-05T09:47:20.791Z,95.90
2017-12-05T09:49:48.426Z,95.92
2017-12-05T09:52:16.017Z,95.61
2017-12-05T09:54:43.650Z,95.41
2017-12-05T09:57:11.230Z,95.21
2017-12-05T09:59:38.859Z,95.22
2017-12-05T10:02:06.456Z,95.13
2017-12-05T10:04:34.099Z,94.82
2017-12-05T10:07:01.694Z,94.75
2017-12-05T10:09:29.335Z,94.58
2017-12-05T10:11:56.915Z,94.32
2017-12-05T10:14:24.530Z,94.24
2017-12-05T10:16:52.127Z,94.15
2017-12-05T10:19:19.754Z,93.97
2017-12-05T10:21:47.418Z,93.58
2017-12-05T10:24:14.988Z,93.47
2017-12-05T10:26:42.574Z,93.36
2017-12-05T10:29:10.230Z,93.19
2017-12-05T10:31:37.840Z,93.24
2017-12-05T10:34:05.502Z,93.18
2017-12-05T10:36:33.138Z,93.29
2017-12-05T10:39:00.738Z,92.87
2017-12-05T10:41:28.318Z,92.87
2017-12-05T10:43:55.910Z,92.88
2017-12-05T10:46:23.534Z,92.96
2017-12-05T10:48:51.131Z,92.79
2017-12-05T10:51:18.734Z,92.72
2017-12-05T10:53:46.355Z,92.65
2017-12-05T10:56:13.978Z,92.53
2017-12-05T10:58:41.542Z,92.43
2017-12-05T11:01:09.216Z,92.22
2017-12-05T11:03:36.866Z,92.13
2017-12-05T11:06:04.491Z,92.19
2017-12-05T11:08:32.090Z,92.10
2017-12-05T11:10:59.714Z,91.89
2017-12-05T11:13:27.281Z,91.85
2017-12-05T11:15:54.930Z,91.69
2017-12-05T11:18:22.584Z,91.83
2017-12-05T11:20:50.426Z,91.62
2017-12-05T11:23:18.050Z,91.55
2017-12-05T11:25:45.707Z,91.64
2017-12-05T11:28:13.287Z,91.56
2017-12-05T11:30:41.045Z,91.65
2017-12-05T11:33:08.651Z,91.70
2017-12-05T11:35:36.269Z,91.73
2017-12-05T11:38:03.863Z,91.41
2017-12-05T11:40:31.473Z,91.50
2017-12-05T11:42:59.070Z,91.66
2017-12-05T11:45:26.709Z,91.61
2017-12-05T11:47:54.303Z,91.31
2017-12-05T11:50:21.910Z,91.59
2017-12-05T11:52:49.501Z,91.06
2017-12-05T11:55:17.090Z,91.00
2017-12-05T11:57:44.725Z,91.06
2017-12-05T12:00:12.309Z,91.05
2017-12-05T12:02:39.961Z,91.23
2017-12-05T12:05:07.538Z,91.22
2017-12-05T12:07:35.167Z,91.30
2017-12-05T12:10:02.758Z,91.18
2017-12-05T12:12:30.396Z,91.28
2017-12-05T12:14:57.990Z,91.37
2017-12-05T12:17:25.631Z,91.04
2017-12-05T12:19:53.221Z,90.74
2017-12-05T12:22:20.847Z,90.88
2017-12-05T12:24:48.441Z,90.98
2017-12-05T12:27:16.085Z,91.18
2017-12-05T12:29:43.678Z,91.28
2017-12-05T12:32:11.310Z,91.26
2017-12-05T12:34:38.895Z,91.50
2017-12-05T12:37:06.567Z,91.11
2017-12-05T12:39:34.164Z,91.13
2017-12-05T12:42:01.848Z,91.14
2017-12-05T12:44:29.447Z,91.43
2017-12-05T12:46:57.126Z,91.46
2017-12-05T12:49:24.738Z,91.12
2017-12-05T12:51:52.362Z,90.91
2017-12-05T12:54:20.020Z,91.10
2017-12-05T12:56:47.663Z,91.09
2017-12-05T12:59:15.286Z,90.89
2017-12-05T13:01:42.886Z,90.77
2017-12-05T13:04:10.502Z,90.92
2017-12-05T13:06:38.106Z,90.82
2017-12-05T13:09:05.726Z,90.63
2017-12-05T13:11:33.315Z,90.63
2017-12-05T13:14:00.937Z,90.65
2017-12-05T13:16:28.541Z,90.74
2017-12-05T13:18:56.161Z,90.52
2017-12-05T13:21:23.770Z,90.13
2017-12-05T13:23:51.406Z,89.86
2017-12-05T13:26:19.031Z,90.16
2017-12-05T13:28:46.675Z,89.90
2017-12-05T13:31:14.311Z,90.11
2017-12-05T13:33:41.939Z,89.84
2017-12-05T13:36:09.537Z,89.82
2017-12-05T13:38:37.155Z,89.60
2017-12-05T13:41:04.782Z,89.61
2017-12-05T13:43:32.379Z,89.13
2017-12-05T13:45:59.998Z,89.03
2017-12-05T13:48:27.670Z,89.04
2017-12-05T13:50:55.314Z,88.93
2017-12-05T13:53:22.902Z,88.79
2017-12-05T13:55:50.535Z,89.09
2017-12-05T13:58:18.118Z,89.21
2017-12-05T14:00:45.751Z,89.22
2017-12-05T14:03:13.334Z,88.68
2017-12-05T14:05:40.996Z,88.82
2017-12-05T14:08:08.604Z,88.96
2017-12-05T14:10:36.229Z,88.76
2017-12-05T14:13:03.824Z,88.66
2017-12-05T14:15:31.439Z,88.69
2017-12-05T14:17:59.077Z,88.82
2017-12-05T14:20:26.715Z,88.69
2017-12-05T14:22:54.304Z,88.73
2017-12-05T14:25:21.930Z,88.76
2017-12-05T14:27:49.536Z,88.69
2017-12-05T14:30:17.163Z,88.95
2017-12-05T14:32:44.847Z,88.96
2017-12-05T14:35:14.014Z,88.61
2017-12-05T14:37:41.615Z,88.58
2017-12-05T14:40:09.238Z,88.56
2017-12-05T14:42:36.842Z,88.53
2017-12-05T14:45:04.487Z,88.19
2017-12-05T14:47:32.141Z,87.98
2017-12-05T14:49:59.715Z,88.10
2017-12-05T14:52:27.306Z,87.99
2017-12-05T14:54:54.947Z,87.70
2017-12-05T14:57:22.556Z,87.69
2017-12-05T14:59:50.158Z,87.72
2017-12-05T15:02:17.750Z,87.70
2017-12-05T15:04:45.390Z,87.70
2017-12-05T15:07:12.975Z,87.91
2017-12-05T15:09:40.575Z,87.91
2017-12-05T15:12:08.276Z,87.73
2017-12-05T15:14:35.866Z,87.75
2017-12-05T15:17:03.596Z,88.05
2017-12-05T15:19:31.879Z,88.23
2017-12-05T15:21:59.494Z,88.07
2017-12-05T15:24:27.131Z,87.95
2017-12-05T15:26:54.793Z,87.97
2017-12-05T15:29:22.378Z,87.93
2017-12-05T15:31:49.974Z,87.81
2017-12-05T15:34:17.613Z,87.96
2017-12-05T15:36:45.225Z,88.13
2017-12-05T15:39:12.862Z,87.94
2017-12-05T15:41:40.458Z,88.10
2017-12-05T15:44:08.092Z,88.13
2017-12-05T15:46:35.706Z,88.11
2017-12-05T15:49:03.336Z,88.43
2017-12-05T15:51:30.971Z,88.47
2017-12-05T15:53:58.663Z,88.58
2017-12-05T15:56:26.258Z,88.77
2017-12-05T15:58:53.906Z,89.05
2017-12-05T16:01:21.528Z,88.98
2017-12-05T16:03:49.175Z,88.80
2017-12-05T16:06:16.804Z,88.88
2017-12-05T16:08:44.442Z,89.01
2017-12-05T16:11:12.075Z,89.01
2017-12-05T16:13:39.670Z,88.88
2017-12-05T16:16:07.311Z,88.99
2017-12-05T16:18:34.906Z,88.79
2017-12-05T16:21:02.595Z,88.75
2017-12-05T16:23:30.186Z,88.79
2017-12-05T16:25:57.879Z,88.74
2017-12-05T16:28:25.546Z,88.74
2017-12-05T16:30:53.277Z,88.68
2017-12-05T16:33:20.865Z,88.26
2017-12-05T16:35:48.526Z,88.35
2017-12-05T16:38:16.106Z,88.33
2017-12-05T16:40:43.794Z,88.07
2017-12-05T16:43:11.487Z,87.77
2017-12-05T16:45:39.164Z,87.88
2017-12-05T16:48:06.791Z,87.91
2017-12-05T16:50:34.526Z,87.44
2017-12-05T16:53:02.146Z,87.55
2017-12-05T16:55:29.755Z,87.37
2017-12-05T16:57:57.341Z,87.17
2017-12-05T17:00:24.973Z,87.16
2017-12-05T17:02:52.587Z,87.22
2017-12-05T17:05:20.180Z,86.98
2017-12-05T17:07:47.823Z,86.98
2017-12-05T17:10:15.502Z,87.01
2017-12-05T17:12:43.172Z,87.12
2017-12-05T17:15:10.803Z,87.05
2017-12-05T17:17:38.424Z,87.14
2017-12-05T17:20:06.063Z,87.12
2017-12-05T17:22:33.710Z,87.37
2017-12-05T17:25:01.320Z,87.11
2017-12-05T17:27:29.026Z,87.03
2017-12-05T17:29:56.644Z,87.04
2017-12-05T17:32:24.264Z,86.99
2017-12-05T17:34:51.910Z,86.95
2017-12-05T17:37:19.531Z,86.89
2017-12-05T17:39:47.189Z,86.93
2017-12-05T17:42:14.812Z,86.92
2017-12-05T17:44:42.473Z,87.04
2017-12-05T17:47:10.079Z,87.02
2017-12-05T17:49:37.850Z,86.96
2017-12-05T17:52:05.494Z,87.12
2017-12-05T17:54:33.146Z,87.13
2017-12-05T17:57:00.738Z,87.10
2017-12-05T17:59:28.446Z,87.03
2017-12-05T18:01:56.105Z,87.03
2017-12-05T18:04:23.734Z,87.08
2017-12-05T18:06:51.333Z,87.19
2017-12-05T18:09:19.034Z,87.20
2017-12-05T18:11:46.648Z,86.94
2017-12-05T18:14:14.282Z,86.84
2017-12-05T18:28:48.234Z,86.84
2017-12-05T18:31:15.944Z,86.72
2017-12-05T18:33:43.560Z,86.75
2017-12-05T18:36:11.274Z,86.80
2017-12-05T18:38:38.909Z,86.91
2017-12-05T18:41:06.577Z,86.83
2017-12-05T18:43:34.300Z,86.90
2017-12-05T18:46:01.907Z,86.94
2017-12-05T18:48:29.499Z,87.07
2017-12-05T18:50:57.195Z,86.85
2017-12-05T18:53:24.800Z,86.64
2017-12-05T18:55:52.523Z,86.53
2017-12-05T18:58:20.123Z,86.78
2017-12-05T19:00:47.760Z,86.82
2017-12-05T19:03:15.357Z,86.63
2017-12-05T19:05:43.028Z,86.64
2017-12-05T19:08:10.735Z,86.77
2017-12-05T19:10:38.364Z,86.80
2017-12-05T19:13:05.963Z,86.57
2017-12-05T19:15:33.599Z,86.51
2017-12-05T19:18:01.288Z,86.72
2017-12-05T19:20:28.944Z,86.68
2017-12-05T19:22:56.536Z,86.59
2017-12-05T19:25:24.128Z,86.38
2017-12-05T19:27:51.758Z,86.24
2017-12-05T19:30:19.535Z,86.19
2017-12-05T19:32:47.191Z,86.61
2017-12-05T19:35:15.652Z,87.42
2017-12-05T19:37:43.483Z,87.69
2017-12-05T19:40:11.112Z,86.99
2017-12-05T19:42:38.775Z,86.42
2017-12-05T19:45:06.383Z,85.23
2017-12-05T19:47:33.993Z,84.99
2017-12-05T19:50:01.665Z,85.25
2017-12-05T19:52:29.329Z,85.18
2017-12-05T19:54:57.280Z,85.19
2017-12-05T19:57:24.985Z,85.12
2017-12-05T19:59:52.615Z,85.39
2017-12-05T20:02:20.235Z,85.17
2017-12-05T20:04:47.887Z,85.21
2017-12-05T20:07:15.544Z,85.11
2017-12-05T20:09:43.312Z,85.04
2017-12-05T20:12:11.055Z,84.93
2017-12-05T20:14:38.659Z,85.07
2017-12-05T20:17:06.519Z,84.92
2017-12-05T20:19:34.204Z,84.91
2017-12-05T20:22:01.876Z,85.13
2017-12-05T20:24:29.528Z,85.00
2017-12-05T20:26:57.133Z,84.95
2017-12-05T20:29:24.750Z,84.93
2017-12-05T20:31:52.455Z,84.85
2017-12-05T20:34:20.191Z,84.67
2017-12-05T20:36:47.880Z,84.71
2017-12-05T20:39:15.747Z,84.27
2017-12-05T20:41:43.394Z,84.23
2017-12-05T20:44:11.032Z,84.44
2017-12-05T20:46:38.695Z,84.34
2017-12-05T20:49:06.377Z,84.47
2017-12-05T20:51:33.994Z,84.17
2017-12-05T20:54:01.626Z,84.02
2017-12-05T20:56:29.232Z,83.79
2017-12-05T20:58:56.887Z,83.95
2017-12-05T21:01:24.597Z,83.98
2017-12-05T21:03:52.427Z,84.05
2017-12-05T21:06:20.058Z,83.99
2017-12-05T21:08:47.783Z,83.78
2017-12-05T21:11:15.507Z,83.82
2017-12-05T21:13:43.163Z,83.69
2017-12-05T21:16:10.892Z,83.73
2017-12-05T21:18:38.682Z,83.67
2017-12-05T21:21:06.320Z,83.55
2017-12-05T21:23:33.941Z,83.55
2017-12-05T21:26:01.638Z,83.51
2017-12-05T21:28:29.306Z,83.37
2017-12-05T21:30:56.915Z,83.25
2017-12-05T21:33:24.622Z,83.02
2017-12-05T21:35:52.295Z,82.68
2017-12-05T21:38:19.935Z,82.91
2017-12-05T21:40:47.541Z,83.17
2017-12-05T21:43:15.164Z,83.30
2017-12-05T21:45:42.755Z,83.02
2017-12-05T21:48:10.514Z,83.08
2017-12-05T21:50:38.273Z,82.99
2017-12-05T21:53:05.936Z,82.78
2017-12-05T21:55:33.555Z,82.47
2017-12-05T21:58:01.180Z,82.55
2017-12-05T22:00:28.778Z,82.38
2017-12-05T22:02:56.407Z,82.45
2017-12-05T22:05:24.009Z,82.29
2017-12-05T22:07:51.636Z,81.94
2017-12-05T22:10:19.325Z,81.85
2017-12-05T22:12:46.979Z,81.53
2017-12-05T22:15:14.602Z,81.27
2017-12-05T22:17:42.250Z,81.31
2017-12-05T22:20:09.890Z,80.90
2017-12-05T22:22:37.504Z,80.73
2017-12-05T22:25:05.169Z,80.36
2017-12-05T22:27:32.797Z,80.11
2017-12-05T22:30:00.411Z,79.89
2017-12-05T22:32:28.041Z,79.89
2017-12-05T22:34:55.684Z,79.44
2017-12-05T22:37:23.302Z,79.28
2017-12-05T22:39:50.915Z,78.96
2017-12-05T22:42:18.487Z,78.88
2017-12-05T22:44:46.119Z,78.68
2017-12-05T22:47:13.750Z,78.98
2017-12-05T22:49:41.370Z,78.98
2017-12-05T22:52:08.955Z,78.75
2017-12-05T22:54:36.608Z,78.73
2017-12-05T22:57:04.182Z,78.80
2017-12-05T22:59:31.783Z,78.95
2017-12-05T23:01:59.414Z,79.16
2017-12-05T23:04:27.007Z,79.15
2017-12-05T23:06:55.448Z,79.48
2017-12-05T23:09:23.047Z,79.59
2017-12-05T23:11:50.708Z,79.58
2017-12-05T23:14:18.335Z,79.51
2017-12-05T23:16:45.960Z,79.64
2017-12-05T23:19:13.552Z,79.60
2017-12-05T23:21:41.170Z,79.77
2017-12-05T23:24:08.769Z,79.87
2017-12-05T23:26:36.446Z,80.04
2017-12-05T23:29:04.049Z,80.23
2017-12-05T23:31:31.680Z,80.28
2017-12-05T23:33:59.273Z,80.18
2017-12-05T23:36:26.903Z,80.38
2017-12-05T23:38:54.532Z,80.42
2017-12-05T23:41:22.142Z,80.43
2017-12-05T23:43:49.758Z,80.53
2017-12-05T23:46:17.363Z,80.42
2017-12-05T23:48:44.943Z,80.73
2017-12-05T23:51:12.571Z,80.80
2017-12-05T23:53:40.166Z,80.91
2017-12-05T23:56:07.799Z,81.01
2017-12-05T23:58:35.386Z,81.04
